createdAt,value
2017-09-15T00:01:37.063Z,12.80
2017-09-15T00:04:04.536Z,12.90
2017-09-15T00:06:32.764Z,12.90
2017-09-15T00:09:00.244Z,12.90
2017-09-15T00:11:27.712Z,13.00
2017-09-15T00:13:55.191Z,13.00
2017-09-15T00:16:23.420Z,13.10
2017-09-15T00:18:50.887Z,13.00
2017-09-15T00:21:18.351Z,13.10
2017-09-15T00:23:45.828Z,13.10
2017-09-15T00:26:14.060Z,13.10
2017-09-15T00:28:42.305Z,13.10
2017-09-15T00:31:09.771Z,13.00
2017-09-15T00:33:37.245Z,13.10
2017-09-15T00:36:04.707Z,13.10
2017-09-15T00:38:32.208Z,13.10
2017-09-15T00:40:59.683Z,13.10
2017-09-15T00:43:27.921Z,13.10
2017-09-15T00:45:55.388Z,13.00
2017-09-15T00:48:22.852Z,13.10
2017-09-15T00:50:50.332Z,13.10
2017-09-15T00:53:18.555Z,13.20
2017-09-15T00:55:46.040Z,13.10
2017-09-15T00:58:13.500Z,13.10
2017-09-15T01:00:40.981Z,13.10
2017-09-15T01:03:09.203Z,13.10
2017-09-15T01:05:36.681Z,13.00
2017-09-15T01:08:04.150Z,13.10
2017-09-15T01:10:31.625Z,13.10
2017-09-15T01:12:59.848Z,12.90
2017-09-15T01:15:27.324Z,12.90
2017-09-15T01:17:54.793Z,13.00
2017-09-15T01:20:22.271Z,13.00
2017-09-15T01:22:49.739Z,13.00
2017-09-15T01:25:17.981Z,12.90
2017-09-15T01:27:45.451Z,12.90
2017-09-15T01:30:12.920Z,13.00
2017-09-15T01:32:40.389Z,13.00
2017-09-15T01:35:08.633Z,13.00
2017-09-15T01:37:36.103Z,13.00
2017-09-15T01:40:03.585Z,13.00
2017-09-15T01:42:32.300Z,12.90
2017-09-15T01:44:59.780Z,12.80
2017-09-15T01:47:27.254Z,12.80
2017-09-15T01:49:54.731Z,12.90
2017-09-15T01:52:22.196Z,12.80
2017-09-15T01:54:50.441Z,12.70
2017-09-15T01:57:17.907Z,12.70
2017-09-15T01:59:45.386Z,12.70
2017-09-15T02:02:13.622Z,12.60
2017-09-15T02:04:41.104Z,12.60
2017-09-15T02:07:08.577Z,12.60
2017-09-15T02:09:36.049Z,12.60
2017-09-15T02:12:04.285Z,12.50
2017-09-15T02:14:31.750Z,12.50
2017-09-15T02:16:59.234Z,12.60
2017-09-15T02:19:27.467Z,12.60
2017-09-15T02:21:54.931Z,12.60
2017-09-15T02:24:22.404Z,12.60
2017-09-15T02:26:49.883Z,12.60
2017-09-15T02:29:18.119Z,12.50
2017-09-15T02:31:45.596Z,12.50
2017-09-15T02:34:13.070Z,12.50
2017-09-15T02:36:40.552Z,12.40
2017-09-15T02:39:08.785Z,12.40
2017-09-15T02:41:36.273Z,12.40
2017-09-15T02:44:04.510Z,12.30
2017-09-15T02:46:31.991Z,12.30
2017-09-15T02:48:59.443Z,12.30
2017-09-15T02:51:26.910Z,12.20
2017-09-15T02:53:54.404Z,12.20
2017-09-15T02:56:21.865Z,12.20
2017-09-15T02:58:49.339Z,12.20
2017-09-15T03:01:16.810Z,12.10
2017-09-15T03:03:44.279Z,12.10
2017-09-15T03:06:11.748Z,12.10
2017-09-15T03:08:39.223Z,12.10
2017-09-15T03:11:06.679Z,12.10
2017-09-15T03:13:34.155Z,12.10
2017-09-15T03:16:02.388Z,12.10
2017-09-15T03:18:29.863Z,12.10
2017-09-15T03:20:57.323Z,12.10
2017-09-15T03:23:24.815Z,12.20
2017-09-15T03:25:52.284Z,12.30
2017-09-15T03:28:19.752Z,12.30
2017-09-15T03:30:47.211Z,12.20
2017-09-15T03:33:14.687Z,12.20
2017-09-15T03:35:42.148Z,12.10
2017-09-15T03:38:09.624Z,12.10
2017-09-15T03:40:37.207Z,12.10
2017-09-15T03:43:05.447Z,12.00
2017-09-15T03:45:32.989Z,12.00
2017-09-15T03:48:00.456Z,12.00
2017-09-15T03:50:27.921Z,11.90
2017-09-15T03:52:55.393Z,11.90
2017-09-15T03:55:22.857Z,11.90
2017-09-15T03:57:50.336Z,11.90
2017-09-15T04:00:18.953Z,11.90
2017-09-15T04:02:46.440Z,11.90
2017-09-15T04:05:13.895Z,11.90
2017-09-15T04:07:41.389Z,12.00
2017-09-15T04:10:08.847Z,12.00
2017-09-15T04:12:37.079Z,11.90
2017-09-15T04:15:04.556Z,11.90
2017-09-15T04:17:32.012Z,11.80
2017-09-15T04:19:59.491Z,11.80
2017-09-15T04:22:26.947Z,11.70
2017-09-15T04:24:54.422Z,11.80
2017-09-15T04:27:22.656Z,11.70
2017-09-15T04:29:50.888Z,11.70
2017-09-15T04:32:18.344Z,11.70
2017-09-15T04:34:45.815Z,11.70
2017-09-15T04:37:13.285Z,11.70
2017-09-15T04:39:40.757Z,11.60
2017-09-15T04:42:08.220Z,11.60
2017-09-15T04:44:35.690Z,11.50
2017-09-15T04:47:03.159Z,11.50
2017-09-15T04:49:30.629Z,11.40
2017-09-15T04:51:58.862Z,11.40
2017-09-15T04:54:26.344Z,11.40
2017-09-15T04:56:53.799Z,11.40
2017-09-15T04:59:21.291Z,11.40
2017-09-15T05:01:49.529Z,11.40
2017-09-15T05:04:16.983Z,11.60
2017-09-15T05:06:45.232Z,11.30
2017-09-15T05:09:12.713Z,11.50
2017-09-15T05:11:40.178Z,11.30
2017-09-15T05:14:07.640Z,11.30
2017-09-15T05:16:35.112Z,11.30
2017-09-15T05:19:02.590Z,11.40
2017-09-15T05:21:30.825Z,11.40
2017-09-15T05:23:58.284Z,11.50
2017-09-15T05:26:25.756Z,11.40
2017-09-15T05:28:53.223Z,11.40
2017-09-15T05:31:25.624Z,11.40
2017-09-15T05:33:53.109Z,11.50
2017-09-15T05:36:20.573Z,11.50
2017-09-15T05:38:48.040Z,11.50
2017-09-15T05:41:15.518Z,11.50
2017-09-15T05:43:42.979Z,11.60
2017-09-15T05:46:10.457Z,11.60
2017-09-15T05:48:38.697Z,11.70
2017-09-15T05:51:06.172Z,11.70
2017-09-15T05:53:33.639Z,11.80
2017-09-15T05:56:01.143Z,11.90
2017-09-15T05:58:28.617Z,11.80
2017-09-15T06:00:56.095Z,11.90
2017-09-15T06:03:23.555Z,12.00
2017-09-15T06:05:51.024Z,12.10
2017-09-15T06:08:18.507Z,12.20
2017-09-15T06:10:46.743Z,12.30
2017-09-15T06:13:14.219Z,12.30
2017-09-15T06:15:41.674Z,12.40
2017-09-15T06:18:09.139Z,12.40
2017-09-15T06:20:36.598Z,12.40
2017-09-15T06:23:04.068Z,12.50
2017-09-15T06:25:32.299Z,12.60
2017-09-15T06:27:59.776Z,12.60
2017-09-15T06:30:27.233Z,12.60
2017-09-15T06:32:54.707Z,12.70
2017-09-15T06:35:22.164Z,12.80
2017-09-15T06:37:49.631Z,12.90
2017-09-15T06:40:17.886Z,13.00
2017-09-15T06:42:45.354Z,13.00
2017-09-15T06:45:12.824Z,13.10
2017-09-15T06:47:40.298Z,13.10
2017-09-15T06:50:08.528Z,13.20
2017-09-15T06:52:35.999Z,13.20
2017-09-15T06:55:03.472Z,13.20
2017-09-15T06:57:30.949Z,13.10
2017-09-15T06:59:59.176Z,13.00
2017-09-15T07:02:26.651Z,12.90
2017-09-15T07:04:54.144Z,13.00
2017-09-15T07:07:22.404Z,13.00
2017-09-15T07:09:49.875Z,13.00
2017-09-15T07:12:18.129Z,13.20
2017-09-15T07:14:45.595Z,13.30
2017-09-15T07:17:13.076Z,13.30
2017-09-15T07:19:40.555Z,13.30
2017-09-15T07:22:08.011Z,13.40
2017-09-15T07:24:35.488Z,13.30
2017-09-15T07:27:02.957Z,13.40
2017-09-15T07:29:30.428Z,13.40
2017-09-15T07:31:57.893Z,13.50
2017-09-15T07:34:25.375Z,13.60
2017-09-15T07:36:53.618Z,13.80
2017-09-15T07:39:21.120Z,13.80
2017-09-15T07:41:49.340Z,13.90
2017-09-15T07:44:16.812Z,13.80
2017-09-15T07:46:44.266Z,13.90
2017-09-15T07:49:11.746Z,13.90
2017-09-15T07:51:39.200Z,14.00
2017-09-15T07:54:06.671Z,14.20
2017-09-15T07:56:34.907Z,14.30
2017-09-15T07:59:02.376Z,14.30
2017-09-15T08:01:29.838Z,14.40
2017-09-15T08:03:57.322Z,14.40
2017-09-15T08:06:25.551Z,14.50
2017-09-15T08:08:53.019Z,14.50
2017-09-15T08:11:20.479Z,14.50
2017-09-15T08:13:47.955Z,14.60
2017-09-15T08:16:15.415Z,14.60
2017-09-15T08:18:42.894Z,14.50
2017-09-15T08:21:11.131Z,14.70
2017-09-15T08:23:38.607Z,14.60
2017-09-15T08:26:06.075Z,14.60
2017-09-15T08:28:33.544Z,14.60
2017-09-15T08:31:01.771Z,14.70
2017-09-15T08:33:29.235Z,14.70
2017-09-15T08:35:56.699Z,14.80
2017-09-15T08:38:24.171Z,14.90
2017-09-15T08:40:51.639Z,14.90
2017-09-15T08:43:19.100Z,15.00
2017-09-15T08:45:47.330Z,15.10
2017-09-15T08:48:14.798Z,15.00
2017-09-15T08:50:42.272Z,15.00
2017-09-15T08:53:09.743Z,14.80
2017-09-15T08:55:37.206Z,14.80
2017-09-15T08:58:05.441Z,14.90
2017-09-15T09:00:32.912Z,14.90
2017-09-15T09:03:00.368Z,15.00
2017-09-15T09:05:27.830Z,15.00
2017-09-15T09:07:55.296Z,15.10
2017-09-15T09:10:22.763Z,15.30
2017-09-15T09:12:50.223Z,15.40
2017-09-15T09:15:17.703Z,15.60
2017-09-15T09:17:45.942Z,15.80
2017-09-15T09:20:13.407Z,15.80
2017-09-15T09:22:40.883Z,15.80
2017-09-15T09:25:08.348Z,15.80
2017-09-15T09:27:36.580Z,16.10
2017-09-15T09:30:04.047Z,16.10
2017-09-15T09:32:31.511Z,16.10
2017-09-15T09:34:59.307Z,16.00
2017-09-15T09:37:27.535Z,16.10
2017-09-15T09:39:55.003Z,16.00
2017-09-15T09:42:22.474Z,16.20
2017-09-15T09:44:49.936Z,16.10
2017-09-15T09:47:17.408Z,16.00
2017-09-15T09:49:45.635Z,16.00
2017-09-15T09:52:13.103Z,16.00
2017-09-15T09:54:40.569Z,15.90
2017-09-15T09:57:08.032Z,15.80
2017-09-15T09:59:35.491Z,15.70
2017-09-15T10:02:03.117Z,15.60
2017-09-15T10:04:30.571Z,15.60
2017-09-15T10:06:58.039Z,15.70
2017-09-15T10:09:25.514Z,16.10
2017-09-15T10:11:52.979Z,16.50
2017-09-15T10:14:20.434Z,16.90
2017-09-15T10:16:47.907Z,17.10
2017-09-15T10:19:15.371Z,17.40
2017-09-15T10:21:42.839Z,17.60
2017-09-15T10:24:10.304Z,17.80
2017-09-15T10:26:38.541Z,17.60
2017-09-15T10:29:06.007Z,17.60
2017-09-15T10:31:33.472Z,17.40
2017-09-15T10:34:00.935Z,17.20
2017-09-15T10:39:06.773Z,17.10
2017-09-15T10:41:34.224Z,17.20
2017-09-15T10:44:01.703Z,17.20
2017-09-15T10:46:29.163Z,17.00
2017-09-15T10:48:56.648Z,17.00
2017-09-15T10:51:24.107Z,17.10
2017-09-15T10:53:51.586Z,16.90
2017-09-15T10:56:19.812Z,16.90
2017-09-15T10:58:53.635Z,17.10
2017-09-15T11:01:21.096Z,17.10
2017-09-15T11:03:48.568Z,17.30
2017-09-15T11:06:16.027Z,17.30
2017-09-15T11:08:43.495Z,17.50
2017-09-15T11:11:11.723Z,17.60
2017-09-15T11:13:39.191Z,17.60
2017-09-15T11:16:06.655Z,17.40
2017-09-15T11:18:34.132Z,17.30
2017-09-15T11:21:01.600Z,17.10
2017-09-15T11:23:29.059Z,17.20
2017-09-15T11:25:57.285Z,17.70
2017-09-15T11:28:24.757Z,17.70
2017-09-15T11:30:52.215Z,18.00
2017-09-15T11:33:19.688Z,18.10
2017-09-15T11:35:47.147Z,18.10
2017-09-15T11:38:14.626Z,18.10
2017-09-15T11:40:42.858Z,18.00
2017-09-15T11:43:10.322Z,17.90
2017-09-15T11:45:37.804Z,17.80
2017-09-15T11:48:05.272Z,17.90
2017-09-15T11:50:33.533Z,18.10
2017-09-15T11:53:00.991Z,18.10
2017-09-15T11:55:28.464Z,18.00
2017-09-15T11:57:55.920Z,18.00
2017-09-15T12:00:23.396Z,17.90
2017-09-15T12:02:51.627Z,17.70
2017-09-15T12:05:19.092Z,17.70
2017-09-15T12:07:46.550Z,17.40
2017-09-15T12:10:14.023Z,17.20
2017-09-15T12:12:41.499Z,16.90
2017-09-15T12:15:09.740Z,16.80
2017-09-15T12:17:37.199Z,16.70
2017-09-15T12:20:04.669Z,16.80
2017-09-15T12:22:32.131Z,16.80
2017-09-15T12:25:01.112Z,16.60
2017-09-15T12:27:28.579Z,16.60
2017-09-15T12:29:56.054Z,16.50
2017-09-15T12:32:23.524Z,16.40
2017-09-15T12:34:51.754Z,16.50
2017-09-15T12:37:19.243Z,16.50
2017-09-15T12:39:46.723Z,16.50
2017-09-15T12:42:14.948Z,16.60
2017-09-15T12:44:42.400Z,16.60
2017-09-15T12:47:09.875Z,16.60
2017-09-15T12:49:37.343Z,16.70
2017-09-15T12:52:04.808Z,16.70
2017-09-15T12:54:32.267Z,16.70
2017-09-15T12:56:59.735Z,16.70
2017-09-15T12:59:27.968Z,16.70
2017-09-15T13:01:55.475Z,16.60
2017-09-15T13:04:22.915Z,16.80
2017-09-15T13:06:50.379Z,16.90
2017-09-15T13:09:17.849Z,17.10
2017-09-15T13:11:46.093Z,17.30
2017-09-15T13:14:13.551Z,17.30
2017-09-15T13:16:41.026Z,17.30
2017-09-15T13:19:08.484Z,17.40
2017-09-15T13:21:35.947Z,17.40
2017-09-15T13:24:03.416Z,17.40
2017-09-15T13:26:31.652Z,17.30
2017-09-15T13:28:59.889Z,17.30
2017-09-15T13:31:27.380Z,17.30
2017-09-15T13:33:54.848Z,17.30
2017-09-15T13:36:22.314Z,17.40
2017-09-15T13:38:50.551Z,17.60
2017-09-15T13:41:18.015Z,17.50
2017-09-15T13:43:45.473Z,17.60
2017-09-15T13:46:12.946Z,17.60
2017-09-15T13:48:40.417Z,17.70
2017-09-15T13:51:07.883Z,17.90
2017-09-15T13:53:36.114Z,17.90
2017-09-15T13:56:03.571Z,17.90
2017-09-15T13:58:31.047Z,17.90
2017-09-15T14:00:58.506Z,18.00
2017-09-15T14:03:25.995Z,17.90
2017-09-15T14:05:54.222Z,17.50
2017-09-15T14:08:21.700Z,17.50
2017-09-15T14:10:49.177Z,17.40
2017-09-15T14:13:16.649Z,17.40
2017-09-15T14:15:44.870Z,17.20
2017-09-15T14:18:12.347Z,17.20
2017-09-15T14:20:39.799Z,17.00
2017-09-15T14:23:07.270Z,17.00
2017-09-15T14:25:34.745Z,17.00
2017-09-15T14:28:02.262Z,17.00
2017-09-15T14:30:29.727Z,16.90
2017-09-15T14:32:57.201Z,16.90
2017-09-15T14:35:24.668Z,16.70
2017-09-15T14:37:52.127Z,16.60
2017-09-15T14:40:19.589Z,16.60
2017-09-15T14:42:47.050Z,16.60
2017-09-15T14:45:16.216Z,16.40
2017-09-15T14:47:43.670Z,16.40
2017-09-15T14:50:11.139Z,16.50
2017-09-15T14:52:38.586Z,16.40
2017-09-15T14:55:06.052Z,16.40
2017-09-15T14:57:33.538Z,16.40
2017-09-15T15:00:00.999Z,16.40
2017-09-15T15:02:28.455Z,16.40
2017-09-15T15:04:55.923Z,16.40
2017-09-15T15:07:23.390Z,16.50
2017-09-15T15:09:50.856Z,16.30
2017-09-15T15:12:18.311Z,16.40
2017-09-15T15:14:45.779Z,16.30
2017-09-15T15:17:13.239Z,16.40
2017-09-15T15:19:40.716Z,16.50
2017-09-15T15:22:08.925Z,16.80
2017-09-15T15:24:36.399Z,16.80
2017-09-15T15:27:03.862Z,16.80
2017-09-15T15:29:31.323Z,16.70
2017-09-15T15:31:58.791Z,16.60
2017-09-15T15:34:26.245Z,16.70
2017-09-15T15:36:53.715Z,16.80
2017-09-15T15:39:21.167Z,16.70
2017-09-15T15:41:48.622Z,16.70
2017-09-15T15:44:16.077Z,16.50
2017-09-15T15:46:43.551Z,16.40
2017-09-15T15:49:11.002Z,16.20
2017-09-15T15:51:38.476Z,16.10
2017-09-15T15:54:06.704Z,16.10
2017-09-15T15:56:34.167Z,16.10
2017-09-15T15:59:01.628Z,16.10
2017-09-15T16:01:29.088Z,15.90
2017-09-15T16:03:56.543Z,15.80
2017-09-15T16:06:24.016Z,15.70
2017-09-15T16:08:51.476Z,15.70
2017-09-15T16:11:18.940Z,15.70
2017-09-15T16:13:46.400Z,15.70
2017-09-15T16:16:13.861Z,15.70
2017-09-15T16:18:41.326Z,15.70
2017-09-15T16:21:08.800Z,15.60
2017-09-15T16:23:37.019Z,15.50
2017-09-15T16:26:04.493Z,15.50
2017-09-15T16:28:31.966Z,15.40
2017-09-15T16:30:59.434Z,15.40
2017-09-15T16:33:26.882Z,15.40
2017-09-15T16:35:54.343Z,15.40
2017-09-15T16:38:27.462Z,15.30
2017-09-15T16:41:01.407Z,15.20
2017-09-15T16:43:34.470Z,15.20
2017-09-15T16:46:07.686Z,15.10
2017-09-15T16:48:40.784Z,15.00
2017-09-15T16:51:08.303Z,14.90
2017-09-15T16:53:36.647Z,14.70
2017-09-15T16:56:04.102Z,14.80
2017-09-15T16:58:31.561Z,14.70
2017-09-15T17:00:59.023Z,14.70
2017-09-15T17:03:26.490Z,14.50
2017-09-15T17:05:53.937Z,14.50
2017-09-15T17:08:21.399Z,14.50
2017-09-15T17:10:48.854Z,14.40
2017-09-15T17:13:16.325Z,14.30
2017-09-15T17:15:43.791Z,14.30
2017-09-15T17:18:11.244Z,14.30
2017-09-15T17:20:38.699Z,14.20
2017-09-15T17:23:06.162Z,14.10
2017-09-15T17:25:33.618Z,14.00
2017-09-15T17:28:01.079Z,14.00
2017-09-15T17:30:29.316Z,13.90
2017-09-15T17:32:56.787Z,13.90
2017-09-15T17:35:24.247Z,13.80
2017-09-15T17:37:51.715Z,13.80
2017-09-15T17:40:19.178Z,13.80
2017-09-15T17:42:46.642Z,13.70
2017-09-15T17:45:14.104Z,13.70
2017-09-15T17:47:41.562Z,13.60
2017-09-15T17:50:09.803Z,13.40
2017-09-15T17:52:37.268Z,13.40
2017-09-15T17:55:04.736Z,13.40
2017-09-15T17:57:32.183Z,13.40
2017-09-15T17:59:59.651Z,13.40
2017-09-15T18:02:27.107Z,13.40
2017-09-15T18:04:54.578Z,13.40
2017-09-15T18:07:22.036Z,13.50
2017-09-15T18:09:49.505Z,13.40
2017-09-15T18:12:17.734Z,13.40
2017-09-15T18:14:45.196Z,13.40
2017-09-15T18:17:12.659Z,13.40
2017-09-15T18:19:40.122Z,13.50
2017-09-15T18:22:07.596Z,13.50
2017-09-15T18:24:35.070Z,13.50
2017-09-15T18:27:02.518Z,13.60
2017-09-15T18:29:29.995Z,13.60
2017-09-15T18:31:58.211Z,13.60
2017-09-15T18:34:25.666Z,13.60
2017-09-15T18:36:53.159Z,13.50
2017-09-15T18:39:20.597Z,13.50
2017-09-15T18:41:48.062Z,13.50
2017-09-15T18:44:16.337Z,13.40
2017-09-15T18:46:43.797Z,13.40
2017-09-15T18:49:11.626Z,13.30
2017-09-15T18:51:39.095Z,13.30
2017-09-15T18:54:06.563Z,13.20
2017-09-15T18:56:34.010Z,13.10
2017-09-15T18:59:01.494Z,13.10
2017-09-15T19:01:28.962Z,13.10
2017-09-15T19:03:56.427Z,13.00
2017-09-15T19:06:23.900Z,13.00
2017-09-15T19:08:51.353Z,13.00
2017-09-15T19:11:18.827Z,13.00
2017-09-15T19:13:47.052Z,12.90
2017-09-15T19:16:14.512Z,12.90
2017-09-15T19:18:41.975Z,12.90
2017-09-15T19:21:09.450Z,12.90
2017-09-15T19:23:36.908Z,12.90
2017-09-15T19:26:04.380Z,12.90
2017-09-15T19:28:31.842Z,12.80
2017-09-15T19:30:59.294Z,12.70
2017-09-15T19:33:26.762Z,12.70
2017-09-15T19:35:54.985Z,12.60
2017-09-15T19:38:22.464Z,12.60
2017-09-15T19:40:49.926Z,12.50
2017-09-15T19:43:17.398Z,12.40
2017-09-15T19:45:44.863Z,12.40
2017-09-15T19:48:12.330Z,12.40
2017-09-15T19:50:40.649Z,12.40
2017-09-15T19:53:08.106Z,12.50
2017-09-15T19:55:35.587Z,12.40
2017-09-15T19:58:03.064Z,12.40
2017-09-15T20:00:30.505Z,12.40
2017-09-15T20:02:57.980Z,12.30
2017-09-15T20:05:25.488Z,12.30
2017-09-15T20:07:52.963Z,12.20
2017-09-15T20:10:20.439Z,12.20
2017-09-15T20:12:47.920Z,12.10
2017-09-15T20:15:15.388Z,12.10
2017-09-15T20:17:46.273Z,12.00
2017-09-15T20:20:13.753Z,12.00
2017-09-15T20:22:41.219Z,12.00
2017-09-15T20:25:08.693Z,11.90
2017-09-15T20:27:36.176Z,11.90
2017-09-15T20:30:04.406Z,12.00
2017-09-15T20:32:31.873Z,12.00
2017-09-15T20:34:59.357Z,11.90
2017-09-15T20:37:27.588Z,11.90
2017-09-15T20:39:55.340Z,11.90
2017-09-15T20:42:23.014Z,11.90
2017-09-15T20:44:50.487Z,11.90
2017-09-15T20:47:17.957Z,11.90
2017-09-15T20:49:45.428Z,11.90
2017-09-15T20:52:13.662Z,11.90
2017-09-15T20:54:41.133Z,11.90
2017-09-15T20:57:08.610Z,11.80
2017-09-15T20:59:36.094Z,11.90
2017-09-15T21:02:04.324Z,11.80
2017-09-15T21:04:31.808Z,11.70
2017-09-15T21:06:59.276Z,11.70
2017-09-15T21:09:27.516Z,11.70
2017-09-15T21:11:54.983Z,11.60
2017-09-15T21:14:23.106Z,11.60
2017-09-15T21:16:54.466Z,11.60
2017-09-15T21:19:25.196Z,11.60
2017-09-15T21:21:52.755Z,11.60
2017-09-15T21:24:20.232Z,11.60
2017-09-15T21:26:47.701Z,11.60
2017-09-15T21:29:15.189Z,11.70
2017-09-15T21:31:43.432Z,11.60
2017-09-15T21:34:10.913Z,11.60
2017-09-15T21:36:38.389Z,11.60
2017-09-15T21:39:06.624Z,11.60
2017-09-15T21:41:34.104Z,11.80
2017-09-15T21:44:01.574Z,11.60
2017-09-15T21:46:29.812Z,11.60
2017-09-15T21:48:57.282Z,11.80
2017-09-15T21:51:24.764Z,11.50
2017-09-15T21:53:53.000Z,11.20
2017-09-15T21:56:20.491Z,11.50
2017-09-15T21:58:48.734Z,11.10
2017-09-15T22:01:16.215Z,11.20
2017-09-15T22:03:50.340Z,11.00
2017-09-15T22:06:18.609Z,11.00
2017-09-15T22:08:46.088Z,11.20
2017-09-15T22:11:14.372Z,11.00
2017-09-15T22:13:42.611Z,11.00
2017-09-15T22:16:10.613Z,11.00
2017-09-15T22:18:38.081Z,11.10
2017-09-15T22:21:05.560Z,11.10
2017-09-15T22:23:33.045Z,11.10
2017-09-15T22:26:00.536Z,11.10
2017-09-15T22:28:28.029Z,11.20
2017-09-15T22:30:55.512Z,11.20
2017-09-15T22:33:23.739Z,11.00
2017-09-15T22:35:51.227Z,11.10
2017-09-15T22:38:18.692Z,10.90
2017-09-15T22:40:46.989Z,10.90
2017-09-15T22:43:15.219Z,10.80
2017-09-15T22:45:42.702Z,10.90
2017-09-15T22:48:10.189Z,10.80
2017-09-15T22:50:37.657Z,10.80
2017-09-15T22:53:05.138Z,10.80
2017-09-15T22:55:32.605Z,10.80
2017-09-15T22:58:00.094Z,10.80
2017-09-15T23:00:27.611Z,10.70
2017-09-15T23:02:55.081Z,10.80
2017-09-15T23:05:22.588Z,10.80
2017-09-15T23:07:50.842Z,10.70
2017-09-15T23:10:18.312Z,10.80
2017-09-15T23:12:46.547Z,10.60
2017-09-15T23:15:15.231Z,10.50
2017-09-15T23:17:46.526Z,10.70
2017-09-15T23:20:14.762Z,10.50
2017-09-15T23:22:42.240Z,10.50
2017-09-15T23:25:09.713Z,10.60
2017-09-15T23:27:37.956Z,10.70
2017-09-15T23:30:05.438Z,11.00
2017-09-15T23:32:32.917Z,10.70
2017-09-15T23:35:01.363Z,10.50
2017-09-15T23:37:28.856Z,10.40
2017-09-15T23:39:57.088Z,10.30
2017-09-15T23:42:24.563Z,10.30
2017-09-15T23:44:52.052Z,10.30
2017-09-15T23:47:19.524Z,10.20
2017-09-15T23:49:47.004Z,10.20
2017-09-15T23:52:14.471Z,10.20
2017-09-15T23:54:41.955Z,10.20
2017-09-15T23:57:09.419Z,10.30
2017-09-15T23:59:36.904Z,10.20
